createdAt,value
2018-04-23T00:00:31.941Z,20.77
2018-04-23T00:01:31.956Z,20.28
2018-04-23T00:02:31.984Z,20.24
2018-04-23T00:03:32.008Z,20.50
2018-04-23T00:04:32.034Z,20.62
2018-04-23T00:05:32.068Z,20.50
2018-04-23T00:06:32.093Z,20.65
2018-04-23T00:07:32.122Z,20.31
2018-04-23T00:08:32.143Z,20.24
2018-04-23T00:09:32.173Z,20.31
2018-04-23T00:10:32.191Z,20.50
2018-04-23T00:11:32.228Z,20.42
2018-04-23T00:12:32.247Z,20.49
2018-04-23T00:13:32.275Z,20.41
2018-04-23T00:14:32.305Z,20.47
2018-04-23T00:15:32.333Z,20.18
2018-04-23T00:16:32.370Z,20.08
2018-04-23T00:17:32.381Z,20.08
2018-04-23T00:18:32.409Z,20.08
2018-04-23T00:19:32.448Z,19.98
2018-04-23T00:20:32.468Z,20.10
2018-04-23T00:21:32.499Z,20.00
2018-04-23T00:22:32.527Z,19.88
2018-04-23T00:23:32.545Z,19.79
2018-04-23T00:24:32.563Z,19.95
2018-04-23T00:25:32.599Z,19.93
2018-04-23T00:26:32.626Z,19.90
2018-04-23T00:27:32.648Z,19.80
2018-04-23T00:28:32.670Z,19.91
2018-04-23T00:29:32.694Z,20.00
2018-04-23T00:30:32.725Z,20.06
2018-04-23T00:31:32.744Z,20.23
2018-04-23T00:32:32.776Z,20.24
2018-04-23T00:33:32.803Z,20.41
2018-04-23T00:34:32.836Z,20.34
2018-04-23T00:35:32.853Z,19.90
2018-04-23T00:36:32.879Z,20.03
2018-04-23T00:37:32.913Z,20.27
2018-04-23T00:38:32.931Z,20.47
2018-04-23T00:39:32.962Z,20.51
2018-04-23T00:40:32.985Z,20.65
2018-04-23T00:41:33.022Z,20.62
2018-04-23T00:42:33.051Z,20.56
2018-04-23T00:43:33.066Z,20.71
2018-04-23T00:44:33.085Z,20.76
2018-04-23T00:45:33.161Z,20.62
2018-04-23T00:46:33.138Z,20.69
2018-04-23T00:47:33.167Z,20.56
2018-04-23T00:48:33.190Z,20.43
2018-04-23T00:49:33.224Z,20.28
2018-04-23T00:50:33.254Z,20.08
2018-04-23T00:51:33.275Z,19.79
2018-04-23T00:52:33.339Z,20.03
2018-04-23T00:53:33.325Z,20.24
2018-04-23T00:54:33.359Z,20.15
2018-04-23T00:55:33.380Z,19.94
2018-04-23T00:56:33.404Z,19.83
2018-04-23T00:57:33.445Z,19.87
2018-04-23T00:58:33.465Z,19.80
2018-04-23T00:59:33.496Z,19.75
2018-04-23T01:00:33.502Z,19.93
2018-04-23T01:01:33.541Z,19.91
2018-04-23T01:02:33.575Z,19.76
2018-04-23T01:03:33.715Z,19.78
2018-04-23T01:04:33.621Z,19.70
2018-04-23T01:05:33.644Z,19.60
2018-04-23T01:06:33.669Z,19.43
2018-04-23T01:07:33.693Z,19.47
2018-04-23T01:08:33.714Z,19.43
2018-04-23T01:09:33.741Z,19.43
2018-04-23T01:10:33.766Z,19.43
2018-04-23T01:11:33.794Z,19.55
2018-04-23T01:12:33.827Z,19.50
2018-04-23T01:13:33.849Z,19.46
2018-04-23T01:14:33.872Z,19.38
2018-04-23T01:15:33.902Z,19.42
2018-04-23T01:16:33.932Z,19.39
2018-04-23T01:17:33.952Z,19.61
2018-04-23T01:18:33.979Z,19.55
2018-04-23T01:19:33.998Z,19.70
2018-04-23T01:20:34.027Z,19.72
2018-04-23T01:21:34.053Z,19.75
2018-04-23T01:22:34.144Z,19.69
2018-04-23T01:23:34.119Z,19.53
2018-04-23T01:24:34.135Z,19.39
2018-04-23T01:25:34.163Z,19.21
2018-04-23T01:26:34.193Z,19.17
2018-04-23T01:27:34.211Z,19.21
2018-04-23T01:28:34.234Z,19.25
2018-04-23T01:29:34.266Z,19.18
2018-04-23T01:30:34.285Z,19.69
2018-04-23T01:31:34.343Z,19.98
2018-04-23T01:32:34.339Z,19.91
2018-04-23T01:33:34.366Z,20.03
2018-04-23T01:34:34.404Z,19.75
2018-04-23T01:35:34.426Z,19.70
2018-04-23T01:36:34.444Z,19.70
2018-04-23T01:37:34.470Z,19.53
2018-04-23T01:38:34.496Z,19.70
2018-04-23T01:39:34.519Z,20.05
2018-04-23T01:40:34.549Z,20.02
2018-04-23T01:41:34.571Z,19.94
2018-04-23T01:42:34.598Z,19.84
2018-04-23T01:43:34.619Z,19.84
2018-04-23T01:44:34.662Z,19.93
2018-04-23T01:45:34.673Z,19.72
2018-04-23T01:46:34.713Z,19.91
2018-04-23T01:47:34.787Z,19.94
2018-04-23T01:48:34.755Z,19.91
2018-04-23T01:49:34.777Z,20.02
2018-04-23T01:50:34.812Z,19.91
2018-04-23T01:51:34.831Z,19.68
2018-04-23T01:52:34.858Z,19.60
2018-04-23T01:53:34.882Z,19.73
2018-04-23T01:54:34.910Z,19.80
2018-04-23T01:55:34.942Z,19.61
2018-04-23T01:56:34.961Z,19.70
2018-04-23T01:57:34.987Z,19.91
2018-04-23T01:58:35.017Z,19.66
2018-04-23T01:59:35.040Z,19.63
2018-04-23T02:00:35.058Z,19.57
2018-04-23T02:01:35.092Z,19.43
2018-04-23T02:02:35.119Z,19.46
2018-04-23T02:03:35.137Z,19.63
2018-04-23T02:04:35.177Z,19.73
2018-04-23T02:05:35.196Z,19.63
2018-04-23T02:06:35.215Z,19.66
2018-04-23T02:07:35.240Z,19.57
2018-04-23T02:08:35.273Z,19.70
2018-04-23T02:09:35.290Z,19.76
2018-04-23T02:10:35.323Z,19.55
2018-04-23T02:11:35.344Z,19.60
2018-04-23T02:12:35.369Z,19.68
2018-04-23T02:13:35.396Z,19.72
2018-04-23T02:14:35.452Z,19.90
2018-04-23T02:15:35.451Z,19.83
2018-04-23T02:16:35.470Z,19.80
2018-04-23T02:17:35.577Z,19.95
2018-04-23T02:18:35.523Z,19.83
2018-04-23T02:19:35.549Z,19.84
2018-04-23T02:20:35.573Z,19.76
2018-04-23T02:21:35.599Z,19.76
2018-04-23T02:22:35.627Z,19.73
2018-04-23T02:23:35.651Z,19.63
2018-04-23T02:24:35.728Z,19.80
2018-04-23T02:25:35.702Z,20.02
2018-04-23T02:26:35.731Z,19.90
2018-04-23T02:27:35.759Z,19.75
2018-04-23T02:28:35.775Z,19.80
2018-04-23T02:29:35.819Z,19.87
2018-04-23T02:30:35.840Z,19.94
2018-04-23T02:31:35.912Z,19.88
2018-04-23T02:32:35.891Z,19.76
2018-04-23T02:33:35.911Z,19.60
2018-04-23T02:34:35.940Z,19.61
2018-04-23T02:35:35.961Z,19.70
2018-04-23T02:36:35.991Z,19.60
2018-04-23T02:37:36.016Z,19.78
2018-04-23T02:38:36.037Z,19.61
2018-04-23T02:39:36.058Z,19.75
2018-04-23T02:40:36.088Z,19.86
2018-04-23T02:41:36.121Z,19.69
2018-04-23T02:42:36.135Z,19.79
2018-04-23T02:43:36.166Z,19.69
2018-04-23T02:44:36.191Z,19.66
2018-04-23T02:45:36.217Z,19.70
2018-04-23T02:46:36.246Z,19.70
2018-04-23T02:47:36.267Z,19.70
2018-04-23T02:48:36.290Z,19.73
2018-04-23T02:49:36.335Z,19.78
2018-04-23T02:50:36.348Z,19.63
2018-04-23T02:51:36.376Z,19.73
2018-04-23T02:52:36.403Z,19.75
2018-04-23T02:53:36.424Z,19.84
2018-04-23T02:54:36.454Z,19.75
2018-04-23T02:55:36.490Z,19.79
2018-04-23T02:56:36.499Z,19.69
2018-04-23T02:57:36.528Z,19.75
2018-04-23T02:58:36.556Z,19.48
2018-04-23T02:59:36.576Z,19.51
2018-04-23T03:00:36.616Z,19.68
2018-04-23T03:01:36.704Z,19.69
2018-04-23T03:02:36.719Z,19.42
2018-04-23T03:03:36.680Z,19.54
2018-04-23T03:04:36.705Z,19.78
2018-04-23T03:05:36.730Z,19.54
2018-04-23T03:06:36.757Z,19.38
2018-04-23T03:07:36.782Z,19.28
2018-04-23T03:08:36.803Z,19.21
2018-04-23T03:09:36.838Z,19.47
2018-04-23T03:10:36.858Z,19.73
2018-04-23T03:11:36.898Z,19.83
2018-04-23T03:12:36.910Z,19.70
2018-04-23T03:13:36.935Z,19.47
2018-04-23T03:14:36.966Z,19.24
2018-04-23T03:15:36.988Z,19.53
2018-04-23T03:16:37.009Z,19.36
2018-04-23T03:17:37.038Z,19.24
2018-04-23T03:18:37.060Z,19.18
2018-04-23T03:19:37.112Z,19.38
2018-04-23T03:20:37.114Z,19.08
2018-04-23T03:21:37.140Z,19.17
2018-04-23T03:22:37.166Z,19.28
2018-04-23T03:23:37.186Z,19.63
2018-04-23T03:24:37.215Z,19.68
2018-04-23T03:25:37.243Z,19.76
2018-04-23T03:26:37.269Z,19.69
2018-04-23T03:27:37.291Z,19.55
2018-04-23T03:28:37.316Z,19.46
2018-04-23T03:29:37.351Z,19.53
2018-04-23T03:30:37.373Z,19.48
2018-04-23T03:31:37.398Z,19.50
2018-04-23T03:32:37.419Z,19.35
2018-04-23T03:33:37.446Z,19.39
2018-04-23T03:34:37.472Z,19.48
2018-04-23T03:35:37.497Z,19.31
2018-04-23T03:36:37.526Z,19.20
2018-04-23T03:37:37.548Z,19.31
2018-04-23T03:38:37.633Z,19.20
2018-04-23T03:39:37.595Z,19.01
2018-04-23T03:40:37.629Z,19.05
2018-04-23T03:41:37.650Z,19.06
2018-04-23T03:42:37.674Z,19.08
2018-04-23T03:43:37.700Z,18.91
2018-04-23T03:44:37.732Z,18.74
2018-04-23T03:45:37.754Z,18.70
2018-04-23T03:46:37.777Z,18.82
2018-04-23T03:47:37.810Z,18.79
2018-04-23T03:48:37.826Z,18.64
2018-04-23T03:49:37.848Z,18.73
2018-04-23T03:50:37.875Z,18.82
2018-04-23T03:51:37.906Z,18.72
2018-04-23T03:52:37.930Z,18.82
2018-04-23T03:53:37.952Z,18.70
2018-04-23T03:54:37.981Z,18.82
2018-04-23T03:55:38.003Z,18.94
2018-04-23T03:56:38.024Z,18.97
2018-04-23T03:57:38.094Z,18.82
2018-04-23T03:58:38.093Z,18.76
2018-04-23T03:59:38.109Z,18.83
2018-04-23T04:00:38.142Z,18.77
2018-04-23T04:01:38.156Z,18.97
2018-04-23T04:02:38.184Z,18.83
2018-04-23T04:03:38.264Z,18.74
2018-04-23T04:04:38.232Z,19.08
2018-04-23T04:05:38.261Z,19.17
2018-04-23T04:06:38.288Z,18.99
2018-04-23T04:07:38.326Z,18.98
2018-04-23T04:08:38.356Z,18.70
2018-04-23T04:09:38.362Z,19.02
2018-04-23T04:10:38.397Z,19.14
2018-04-23T04:11:38.415Z,19.23
2018-04-23T04:12:38.449Z,19.15
2018-04-23T04:13:38.456Z,19.29
2018-04-23T04:14:38.485Z,19.40
2018-04-23T04:15:38.595Z,19.43
2018-04-23T04:16:38.536Z,19.06
2018-04-23T04:17:38.561Z,18.98
2018-04-23T04:18:38.590Z,18.98
2018-04-23T04:19:38.604Z,18.97
2018-04-23T04:20:38.640Z,18.82
2018-04-23T04:21:38.661Z,18.74
2018-04-23T04:22:38.691Z,18.87
2018-04-23T04:23:38.706Z,19.08
2018-04-23T04:24:38.730Z,18.99
2018-04-23T04:25:38.775Z,18.95
2018-04-23T04:26:38.790Z,18.74
2018-04-23T04:27:38.817Z,18.44
2018-04-23T04:28:38.838Z,18.36
2018-04-23T04:29:38.862Z,18.42
2018-04-23T04:30:38.883Z,18.29
2018-04-23T04:31:38.912Z,18.09
2018-04-23T04:32:38.942Z,18.29
2018-04-23T04:33:38.969Z,18.13
2018-04-23T04:34:38.986Z,18.17
2018-04-23T04:35:39.084Z,18.37
2018-04-23T04:36:39.051Z,18.54
2018-04-23T04:37:39.063Z,18.52
2018-04-23T04:38:39.090Z,18.55
2018-04-23T04:39:39.121Z,18.46
2018-04-23T04:40:39.162Z,18.36
2018-04-23T04:41:39.163Z,18.33
2018-04-23T04:42:39.191Z,18.21
2018-04-23T04:43:39.212Z,18.27
2018-04-23T04:44:39.239Z,18.15
2018-04-23T04:45:39.266Z,18.27
2018-04-23T04:46:39.294Z,18.13
2018-04-23T04:47:39.333Z,18.21
2018-04-23T04:48:39.350Z,18.28
2018-04-23T04:49:39.364Z,18.40
2018-04-23T04:50:39.394Z,18.44
2018-04-23T04:51:39.410Z,18.37
2018-04-23T04:52:39.437Z,18.40
2018-04-23T04:53:39.471Z,18.47
2018-04-23T04:54:39.491Z,18.49
2018-04-23T04:55:39.516Z,18.65
2018-04-23T04:56:39.556Z,18.59
2018-04-23T04:57:39.558Z,18.55
2018-04-23T04:58:39.585Z,18.70
2018-04-23T04:59:39.608Z,18.55
2018-04-23T05:00:39.633Z,18.64
2018-04-23T05:01:39.663Z,18.65
2018-04-23T05:02:39.693Z,18.67
2018-04-23T05:03:39.718Z,18.54
2018-04-23T05:04:39.774Z,18.39
2018-04-23T05:05:39.761Z,18.43
2018-04-23T05:06:39.782Z,18.36
2018-04-23T05:07:39.814Z,18.54
2018-04-23T05:08:39.840Z,18.80
2018-04-23T05:09:39.860Z,18.55
2018-04-23T05:10:39.883Z,18.72
2018-04-23T05:11:39.909Z,18.73
2018-04-23T05:12:39.939Z,18.86
2018-04-23T05:13:39.967Z,19.02
2018-04-23T05:14:39.993Z,19.21
2018-04-23T05:15:40.012Z,19.28
2018-04-23T05:16:40.032Z,19.39
2018-04-23T05:17:40.105Z,19.48
2018-04-23T05:18:40.083Z,19.31
2018-04-23T05:19:40.117Z,19.10
2018-04-23T05:20:40.134Z,19.20
2018-04-23T05:21:40.157Z,18.98
2018-04-23T05:22:40.185Z,18.94
2018-04-23T05:23:40.250Z,18.86
2018-04-23T05:24:40.240Z,18.95
2018-04-23T05:25:40.277Z,18.84
2018-04-23T05:26:40.299Z,18.80
2018-04-23T05:27:40.317Z,18.83
2018-04-23T05:28:40.351Z,18.86
2018-04-23T05:29:40.364Z,19.11
2018-04-23T05:30:40.384Z,19.28
2018-04-23T05:31:40.413Z,19.17
2018-04-23T05:32:40.434Z,19.31
2018-04-23T05:33:40.462Z,19.42
2018-04-23T05:34:40.485Z,19.28
2018-04-23T05:35:40.516Z,19.36
2018-04-23T05:36:40.534Z,19.47
2018-04-23T05:37:40.579Z,19.61
2018-04-23T05:38:40.590Z,19.65
2018-04-23T05:39:40.614Z,19.68
2018-04-23T05:40:40.641Z,19.72
2018-04-23T05:41:40.662Z,19.76
2018-04-23T05:42:40.682Z,19.79
2018-04-23T05:43:40.713Z,19.87
2018-04-23T05:44:40.734Z,19.86
2018-04-23T05:45:40.765Z,19.87
2018-04-23T05:46:40.788Z,19.83
2018-04-23T05:47:40.821Z,19.97
2018-04-23T05:48:40.838Z,19.90
2018-04-23T05:49:40.868Z,19.83
2018-04-23T05:50:40.888Z,19.93
2018-04-23T05:51:40.952Z,19.95
2018-04-23T05:52:40.984Z,19.98
2018-04-23T05:53:40.966Z,19.95
2018-04-23T05:54:40.989Z,20.02
2018-04-23T05:55:41.017Z,19.87
2018-04-23T05:56:41.046Z,19.97
2018-04-23T05:57:41.066Z,19.91
2018-04-23T05:58:41.087Z,20.03
2018-04-23T05:59:41.120Z,19.93
2018-04-23T06:00:41.144Z,19.93
2018-04-23T06:01:41.176Z,19.91
2018-04-23T06:02:41.189Z,19.78
2018-04-23T06:03:41.237Z,19.78
2018-04-23T06:04:41.237Z,19.70
2018-04-23T06:05:41.276Z,19.76
2018-04-23T06:06:41.318Z,19.72
2018-04-23T06:07:41.324Z,19.68
2018-04-23T06:08:41.339Z,19.79
2018-04-23T06:09:41.375Z,19.84
2018-04-23T06:10:41.395Z,20.03
2018-04-23T06:11:41.424Z,20.09
2018-04-23T06:12:41.461Z,20.16
2018-04-23T06:13:41.472Z,20.15
2018-04-23T06:14:41.497Z,20.16
2018-04-23T06:15:41.525Z,20.09
2018-04-23T06:16:41.550Z,20.12
2018-04-23T06:17:41.583Z,20.15
2018-04-23T06:18:41.594Z,20.16
2018-04-23T06:19:41.685Z,20.21
2018-04-23T06:20:41.653Z,20.21
2018-04-23T06:21:41.674Z,20.27
2018-04-23T06:22:41.709Z,20.25
2018-04-23T06:23:41.745Z,20.28
2018-04-23T06:24:41.758Z,20.35
2018-04-23T06:25:41.775Z,20.39
2018-04-23T06:26:41.813Z,20.46
2018-04-23T06:27:41.834Z,20.35
2018-04-23T06:28:41.860Z,20.23
2018-04-23T06:29:41.881Z,20.20
2018-04-23T06:30:41.908Z,20.24
2018-04-23T06:31:41.968Z,20.21
2018-04-23T06:32:41.960Z,20.18
2018-04-23T06:33:41.989Z,19.76
2018-04-23T06:34:42.010Z,19.78
2018-04-23T06:35:42.036Z,19.86
2018-04-23T06:36:42.057Z,19.93
2018-04-23T06:37:42.089Z,19.93
2018-04-23T06:38:42.107Z,20.09
2018-04-23T06:39:42.142Z,20.15
2018-04-23T06:40:42.165Z,20.03
2018-04-23T06:41:42.200Z,19.94
2018-04-23T06:42:42.218Z,20.00
2018-04-23T06:43:42.241Z,19.87
2018-04-23T06:44:42.264Z,19.84
2018-04-23T06:45:42.291Z,19.90
2018-04-23T06:46:42.336Z,19.95
2018-04-23T06:47:42.347Z,19.98
2018-04-23T06:48:42.368Z,20.00
2018-04-23T06:49:42.409Z,20.02
2018-04-23T06:50:42.435Z,19.88
2018-04-23T06:51:42.446Z,19.97
2018-04-23T06:52:42.468Z,20.03
2018-04-23T06:53:42.500Z,19.94
2018-04-23T06:54:42.522Z,19.91
2018-04-23T06:55:42.549Z,19.97
2018-04-23T06:56:42.604Z,19.50
2018-04-23T06:57:42.599Z,19.48
2018-04-23T06:58:42.619Z,19.73
2018-04-23T06:59:42.647Z,19.48
2018-04-23T07:00:42.684Z,19.55
2018-04-23T07:01:42.734Z,19.18
2018-04-23T07:02:42.721Z,18.90
2018-04-23T07:03:42.767Z,18.98
2018-04-23T07:04:42.817Z,18.99
2018-04-23T07:05:42.806Z,19.06
2018-04-23T07:06:42.838Z,19.10
2018-04-23T07:07:42.858Z,18.98
2018-04-23T07:08:42.873Z,18.70
2018-04-23T07:09:42.909Z,18.36
2018-04-23T07:10:42.929Z,18.36
2018-04-23T07:11:42.952Z,18.68
2018-04-23T07:12:42.983Z,18.73
2018-04-23T07:13:43.006Z,18.80
2018-04-23T07:14:43.029Z,18.77
2018-04-23T07:15:43.054Z,18.82
2018-04-23T07:16:43.075Z,18.74
2018-04-23T07:17:43.107Z,18.82
2018-04-23T07:18:43.131Z,18.98
2018-04-23T07:19:43.158Z,19.02
2018-04-23T07:20:43.191Z,18.98
2018-04-23T07:21:43.209Z,18.94
2018-04-23T07:22:43.254Z,18.68
2018-04-23T07:23:43.256Z,18.80
2018-04-23T07:24:43.279Z,18.67
2018-04-23T07:25:43.309Z,18.67
2018-04-23T07:26:43.330Z,18.70
2018-04-23T07:27:43.360Z,18.52
2018-04-23T07:28:43.381Z,18.52
2018-04-23T07:29:43.405Z,18.39
2018-04-23T07:30:43.438Z,18.29
2018-04-23T07:31:43.457Z,18.40
2018-04-23T07:32:43.480Z,18.46
2018-04-23T07:33:43.566Z,18.50
2018-04-23T07:34:43.537Z,18.64
2018-04-23T07:35:43.557Z,18.61
2018-04-23T07:36:43.585Z,18.58
2018-04-23T07:37:43.604Z,18.43
2018-04-23T07:38:43.631Z,18.40
2018-04-23T07:39:43.654Z,18.57
2018-04-23T07:40:43.713Z,18.46
2018-04-23T07:41:43.704Z,18.36
2018-04-23T07:42:43.732Z,18.47
2018-04-23T07:43:43.809Z,18.44
2018-04-23T07:44:43.878Z,18.33
2018-04-23T07:45:43.814Z,18.28
2018-04-23T07:46:43.831Z,18.55
2018-04-23T07:47:43.855Z,18.34
2018-04-23T07:48:43.878Z,18.21
2018-04-23T07:49:43.907Z,18.42
2018-04-23T07:50:43.931Z,18.36
2018-04-23T07:51:43.946Z,18.36
2018-04-23T07:52:43.974Z,18.36
2018-04-23T07:53:43.998Z,18.37
2018-04-23T07:54:44.020Z,18.59
2018-04-23T07:55:44.044Z,18.34
2018-04-23T07:56:44.067Z,18.40
2018-04-23T07:57:44.098Z,18.52
2018-04-23T07:58:44.121Z,18.39
2018-04-23T07:59:44.144Z,18.22
2018-04-23T08:00:44.174Z,18.37
2018-04-23T08:01:44.186Z,18.46
2018-04-23T08:02:44.219Z,18.58
2018-04-23T08:03:44.243Z,18.47
2018-04-23T08:04:44.262Z,18.52
2018-04-23T08:05:44.296Z,18.50
2018-04-23T08:06:44.317Z,18.50
2018-04-23T08:07:44.340Z,18.57
2018-04-23T08:08:44.371Z,18.50
2018-04-23T08:09:44.386Z,18.52
2018-04-23T08:10:44.465Z,18.62
2018-04-23T08:11:44.434Z,18.50
2018-04-23T08:12:44.462Z,18.43
2018-04-23T08:13:44.489Z,18.58
2018-04-23T08:14:44.505Z,18.64
2018-04-23T08:15:44.544Z,18.62
2018-04-23T08:16:44.557Z,18.74
2018-04-23T08:17:44.582Z,18.77
2018-04-23T08:18:44.605Z,18.77
2018-04-23T08:19:44.672Z,18.49
2018-04-23T08:20:44.649Z,18.57
2018-04-23T08:21:44.681Z,18.62
2018-04-23T08:22:44.699Z,18.64
2018-04-23T08:23:44.724Z,18.79
2018-04-23T08:24:44.752Z,18.72
2018-04-23T08:25:44.778Z,18.86
2018-04-23T08:26:44.797Z,18.74
2018-04-23T08:27:44.830Z,18.77
2018-04-23T08:28:44.852Z,18.76
2018-04-23T08:29:44.871Z,18.94
2018-04-23T08:30:44.900Z,19.08
2018-04-23T08:31:44.923Z,19.13
2018-04-23T08:32:44.952Z,19.17
2018-04-23T08:33:44.997Z,19.08
2018-04-23T08:34:45.002Z,18.91
2018-04-23T08:35:45.063Z,18.87
2018-04-23T08:36:45.050Z,18.79
2018-04-23T08:37:45.076Z,18.77
2018-04-23T08:38:45.093Z,18.91
2018-04-23T08:39:45.124Z,18.83
2018-04-23T08:40:45.141Z,18.80
2018-04-23T08:41:45.188Z,18.72
2018-04-23T08:42:45.195Z,18.72
2018-04-23T08:43:45.261Z,18.99
2018-04-23T08:44:45.238Z,19.15
2018-04-23T08:45:45.270Z,19.28
2018-04-23T08:46:45.290Z,19.39
2018-04-23T08:47:45.363Z,19.08
2018-04-23T08:48:45.345Z,19.21
2018-04-23T08:49:45.369Z,19.25
2018-04-23T08:50:45.396Z,19.43
2018-04-23T08:51:45.424Z,19.54
2018-04-23T08:52:45.446Z,19.43
2018-04-23T08:53:45.465Z,19.39
2018-04-23T08:54:45.496Z,19.48
2018-04-23T08:55:45.558Z,19.63
2018-04-23T08:56:45.555Z,19.66
2018-04-23T08:57:45.570Z,19.60
2018-04-23T08:58:45.601Z,19.54
2018-04-23T08:59:45.619Z,19.50
2018-04-23T09:00:45.642Z,19.39
2018-04-23T09:01:45.675Z,19.50
2018-04-23T09:02:45.701Z,19.24
2018-04-23T09:03:45.736Z,19.36
2018-04-23T09:04:45.757Z,19.43
2018-04-23T09:05:45.776Z,19.46
2018-04-23T09:06:45.798Z,19.36
2018-04-23T09:07:45.830Z,19.47
2018-04-23T09:08:45.840Z,19.55
2018-04-23T09:09:45.871Z,19.61
2018-04-23T09:10:45.897Z,19.72
2018-04-23T09:11:45.926Z,19.73
2018-04-23T09:12:45.948Z,19.76
2018-04-23T09:13:45.974Z,19.73
2018-04-23T09:14:45.992Z,19.66
2018-04-23T09:15:46.023Z,19.75
2018-04-23T09:16:46.048Z,19.84
2018-04-23T09:17:46.072Z,19.83
2018-04-23T09:18:46.107Z,19.43
2018-04-23T09:19:46.122Z,19.40
2018-04-23T09:20:46.149Z,19.63
2018-04-23T09:21:46.207Z,19.72
2018-04-23T09:22:46.193Z,19.83
2018-04-23T09:23:46.229Z,19.84
2018-04-23T09:24:46.348Z,19.94
2018-04-23T09:25:46.275Z,20.02
2018-04-23T09:26:46.302Z,19.90
2018-04-23T09:27:46.324Z,19.90
2018-04-23T09:28:46.357Z,19.76
2018-04-23T09:29:46.391Z,19.90
2018-04-23T09:30:46.400Z,19.94
2018-04-23T09:31:46.428Z,19.93
2018-04-23T09:32:46.450Z,19.94
2018-04-23T09:33:46.485Z,19.87
2018-04-23T09:34:46.508Z,19.87
2018-04-23T09:35:46.538Z,19.91
2018-04-23T09:36:46.553Z,20.05
2018-04-23T09:37:46.605Z,20.06
2018-04-23T09:38:46.616Z,19.97
2018-04-23T09:39:46.642Z,20.00
2018-04-23T09:40:46.660Z,20.16
2018-04-23T09:41:46.685Z,20.23
2018-04-23T09:42:46.711Z,20.47
2018-04-23T09:43:46.733Z,20.41
2018-04-23T09:44:46.759Z,20.49
2018-04-23T09:45:46.785Z,20.49
2018-04-23T09:46:46.817Z,20.34
2018-04-23T09:47:46.839Z,20.49
2018-04-23T09:48:46.865Z,20.59
2018-04-23T09:49:46.891Z,20.53
2018-04-23T09:50:46.915Z,20.42
2018-04-23T09:51:46.956Z,20.46
2018-04-23T09:52:46.970Z,20.54
2018-04-23T09:53:47.002Z,20.54
2018-04-23T09:54:47.018Z,20.77
2018-04-23T09:55:47.047Z,20.77
2018-04-23T09:56:47.075Z,20.74
2018-04-23T09:57:47.101Z,20.68
2018-04-23T09:58:47.144Z,20.68
2018-04-23T09:59:47.151Z,20.68
2018-04-23T10:00:47.180Z,20.69
2018-04-23T10:01:47.202Z,20.80
2018-04-23T10:02:47.232Z,20.80
2018-04-23T10:03:47.255Z,20.66
2018-04-23T10:04:47.281Z,20.84
2018-04-23T10:05:47.303Z,20.86
2018-04-23T10:06:47.335Z,20.79
2018-04-23T10:07:47.361Z,20.80
2018-04-23T10:08:47.417Z,20.65
2018-04-23T10:09:47.434Z,20.61
2018-04-23T10:10:47.436Z,20.86
2018-04-23T10:11:47.474Z,20.91
2018-04-23T10:12:47.494Z,20.84
2018-04-23T10:13:47.517Z,20.76
2018-04-23T10:14:47.548Z,20.69
2018-04-23T10:15:47.571Z,20.51
2018-04-23T10:16:47.596Z,20.35
2018-04-23T10:17:47.628Z,20.65
2018-04-23T10:18:47.651Z,20.71
2018-04-23T10:19:47.678Z,20.62
2018-04-23T10:20:47.696Z,20.71
2018-04-23T10:21:47.734Z,20.81
2018-04-23T10:22:47.762Z,20.80
2018-04-23T10:23:47.836Z,20.86
2018-04-23T10:24:47.808Z,20.90
2018-04-23T10:25:47.833Z,20.76
2018-04-23T10:26:48.042Z,20.90
2018-04-23T10:27:47.897Z,21.14
2018-04-23T10:28:47.908Z,21.17
2018-04-23T10:29:47.938Z,21.23
2018-04-23T10:30:47.966Z,20.99
2018-04-23T10:31:47.988Z,21.09
2018-04-23T10:32:48.016Z,21.06
2018-04-23T10:33:48.047Z,21.05
2018-04-23T10:34:48.112Z,21.09
2018-04-23T10:35:48.104Z,21.26
2018-04-23T10:36:48.131Z,21.46
2018-04-23T10:37:48.152Z,21.60
2018-04-23T10:38:48.180Z,21.11
2018-04-23T10:39:48.207Z,21.29
2018-04-23T10:40:48.238Z,21.24
2018-04-23T10:41:48.260Z,21.24
2018-04-23T10:42:48.303Z,21.41
2018-04-23T10:43:48.313Z,21.45
2018-04-23T10:44:48.340Z,21.05
2018-04-23T10:45:48.377Z,21.13
2018-04-23T10:46:48.392Z,21.11
2018-04-23T10:47:48.421Z,21.01
2018-04-23T10:48:48.463Z,21.20
2018-04-23T10:49:48.472Z,21.01
2018-04-23T10:50:48.504Z,20.76
2018-04-23T10:51:48.533Z,20.79
2018-04-23T10:52:48.554Z,20.42
2018-04-23T10:53:48.580Z,20.56
2018-04-23T10:54:48.604Z,20.50
2018-04-23T10:55:48.637Z,20.49
2018-04-23T10:56:48.673Z,20.49
2018-04-23T10:57:48.690Z,20.71
2018-04-23T10:58:48.725Z,20.59
2018-04-23T10:59:48.740Z,20.65
2018-04-23T11:00:48.769Z,20.64
2018-04-23T11:01:48.823Z,20.59
2018-04-23T11:02:48.828Z,20.08
2018-04-23T11:03:48.872Z,20.08
2018-04-23T11:04:48.869Z,20.12
2018-04-23T11:05:48.908Z,20.15
2018-04-23T11:06:48.927Z,20.27
2018-04-23T11:07:48.960Z,20.28
2018-04-23T11:08:48.986Z,20.28
2018-04-23T11:09:49.003Z,20.27
2018-04-23T11:10:49.041Z,20.30
2018-04-23T11:11:49.088Z,20.25
2018-04-23T11:12:49.091Z,20.05
2018-04-23T11:13:49.110Z,20.09
2018-04-23T11:14:49.145Z,19.80
2018-04-23T11:15:49.169Z,19.95
2018-04-23T11:16:49.189Z,19.88
2018-04-23T11:17:49.229Z,20.05
2018-04-23T11:18:49.236Z,20.05
2018-04-23T11:19:49.268Z,20.03
2018-04-23T11:20:49.299Z,20.05
2018-04-23T11:21:49.423Z,20.15
2018-04-23T11:22:49.345Z,20.41
2018-04-23T11:23:49.375Z,20.00
2018-04-23T11:24:49.434Z,20.02
2018-04-23T11:25:49.432Z,20.13
2018-04-23T11:26:49.449Z,20.03
2018-04-23T11:27:49.483Z,20.13
2018-04-23T11:28:49.519Z,20.24
2018-04-23T11:29:49.523Z,20.25
2018-04-23T11:30:49.555Z,19.91
2018-04-23T11:31:49.613Z,20.08
2018-04-23T11:32:49.608Z,19.73
2018-04-23T11:33:49.644Z,19.95
2018-04-23T11:34:49.660Z,19.91
2018-04-23T11:35:49.692Z,19.80
2018-04-23T11:36:49.706Z,19.90
2018-04-23T11:37:49.735Z,20.02
2018-04-23T11:38:49.854Z,20.03
2018-04-23T11:39:49.787Z,20.02
2018-04-23T11:40:49.814Z,19.95
2018-04-23T11:41:49.838Z,20.24
2018-04-23T11:42:49.868Z,20.08
2018-04-23T11:43:49.889Z,20.05
2018-04-23T11:44:49.917Z,20.28
2018-04-23T11:45:49.944Z,20.25
2018-04-23T11:46:49.968Z,20.03
2018-04-23T11:47:50.008Z,20.05
2018-04-23T11:48:50.014Z,20.38
2018-04-23T11:49:50.059Z,20.43
2018-04-23T11:50:50.070Z,20.66
2018-04-23T11:51:50.097Z,20.27
2018-04-23T11:52:50.120Z,20.08
2018-04-23T11:53:50.179Z,20.43
2018-04-23T11:54:50.174Z,20.34
2018-04-23T11:55:50.206Z,20.00
2018-04-23T11:56:50.232Z,20.30
2018-04-23T11:57:50.255Z,20.46
2018-04-23T11:58:51.008Z,20.49
2018-04-23T11:59:50.299Z,20.34
2018-04-23T12:00:50.329Z,20.76
2018-04-23T12:01:50.372Z,20.50
2018-04-23T12:02:50.377Z,20.43
2018-04-23T12:03:50.410Z,20.49
2018-04-23T12:04:50.438Z,20.47
2018-04-23T12:05:50.484Z,20.65
2018-04-23T12:06:50.481Z,20.71
2018-04-23T12:07:50.511Z,20.74
2018-04-23T12:08:50.537Z,20.47
2018-04-23T12:09:50.569Z,20.43
2018-04-23T12:10:50.637Z,20.54
2018-04-23T12:11:50.620Z,20.51
2018-04-23T12:12:50.648Z,20.51
2018-04-23T12:13:50.670Z,20.74
2018-04-23T12:14:50.695Z,20.66
2018-04-23T12:15:50.717Z,20.76
2018-04-23T12:16:50.735Z,20.64
2018-04-23T12:17:51.506Z,20.64
2018-04-23T12:18:50.799Z,20.62
2018-04-23T12:19:50.819Z,20.38
2018-04-23T12:20:50.844Z,20.33
2018-04-23T12:21:50.874Z,20.46
2018-04-23T12:22:50.892Z,20.38
2018-04-23T12:23:50.946Z,20.47
2018-04-23T12:24:50.952Z,20.39
2018-04-23T12:25:50.977Z,20.54
2018-04-23T12:26:51.000Z,20.71
2018-04-23T12:27:51.022Z,20.96
2018-04-23T12:28:51.062Z,20.80
2018-04-23T12:29:51.077Z,20.89
2018-04-23T12:30:51.147Z,21.14
2018-04-23T12:31:51.128Z,21.06
2018-04-23T12:32:51.154Z,21.30
2018-04-23T12:33:51.177Z,21.11
2018-04-23T12:34:51.201Z,21.09
2018-04-23T12:35:51.233Z,21.23
2018-04-23T12:36:51.261Z,21.17
2018-04-23T12:37:51.290Z,20.90
2018-04-23T12:38:51.315Z,20.98
2018-04-23T12:39:51.332Z,21.41
2018-04-23T12:40:51.367Z,21.35
2018-04-23T12:41:51.395Z,21.61
2018-04-23T12:42:51.413Z,22.12
2018-04-23T12:43:51.445Z,22.14
2018-04-23T12:44:51.471Z,21.95
2018-04-23T12:45:51.536Z,22.01
2018-04-23T12:46:51.522Z,22.14
2018-04-23T12:47:51.753Z,22.46
2018-04-23T12:48:51.651Z,22.39
2018-04-23T12:49:51.602Z,22.60
2018-04-23T12:50:51.631Z,22.71
2018-04-23T12:51:51.657Z,22.74
2018-04-23T12:52:51.690Z,23.43